createdAt,value
2023-02-22T00:01:35.298Z,101757.84
2023-02-22T00:03:39.040Z,101749.06
2023-02-22T00:05:40.822Z,101752.59
2023-02-22T00:07:44.662Z,101751.72
2023-02-22T00:09:46.131Z,101753.47
2023-02-22T00:11:48.786Z,101749.94
2023-02-22T00:13:50.692Z,101756.97
2023-02-22T00:15:52.147Z,101751.72
2023-02-22T00:17:54.941Z,101749.94
2023-02-22T00:19:56.398Z,101753.47
2023-02-22T00:21:58.098Z,101749.06
2023-02-22T00:23:59.604Z,101746.44
2023-02-22T00:26:01.285Z,101750.84
2023-02-22T00:28:04.958Z,101756.09
2023-02-22T00:30:07.263Z,101746.47
2023-02-22T00:32:09.085Z,101745.59
2023-02-22T00:34:10.591Z,101742.06
2023-02-22T00:36:13.701Z,101749.13
2023-02-22T00:38:17.857Z,101744.75
2023-02-22T00:40:23.260Z,101740.38
2023-02-22T00:42:24.738Z,101737.72
2023-02-22T00:44:27.441Z,101742.13
2023-02-22T00:46:28.917Z,101742.13
2023-02-22T00:48:30.400Z,101735.97
2023-02-22T00:50:32.937Z,101735.97
2023-02-22T00:52:36.046Z,101735.97
2023-02-22T00:54:37.565Z,101729.84
2023-02-22T00:56:39.306Z,101730.75
2023-02-22T00:58:40.815Z,101729.88
2023-02-22T01:00:43.628Z,101729.00
2023-02-22T01:02:45.223Z,101719.34
2023-02-22T01:04:46.690Z,101726.38
2023-02-22T01:06:48.286Z,101717.59
2023-02-22T01:08:49.757Z,101721.97
2023-02-22T01:10:52.609Z,101719.34
2023-02-22T01:12:55.385Z,101715.84
2023-02-22T01:14:58.611Z,101712.34
2023-02-22T01:17:00.128Z,101711.50
2023-02-22T01:19:01.609Z,101712.38
2023-02-22T01:21:06.524Z,101705.38
2023-02-22T01:23:08.291Z,101707.13
2023-02-22T01:25:11.455Z,101708.91
2023-02-22T01:27:13.762Z,101709.78
2023-02-22T01:29:16.617Z,101703.66
2023-02-22T01:31:18.428Z,101700.13
2023-02-22T01:33:20.182Z,101701.00
2023-02-22T01:35:25.562Z,101700.13
2023-02-22T01:37:27.379Z,101694.84
2023-02-22T01:39:28.847Z,101693.97
2023-02-22T01:41:30.302Z,101687.84
2023-02-22T01:43:33.197Z,101687.00
2023-02-22T01:45:40.744Z,101683.50
2023-02-22T01:47:42.839Z,101689.66
2023-02-22T01:49:50.864Z,101677.34
2023-02-22T01:51:56.584Z,101684.38
2023-02-22T01:54:10.069Z,101672.09
2023-02-22T01:56:12.947Z,101680.03
2023-02-22T01:58:18.524Z,101680.03
2023-02-22T02:00:22.105Z,101674.75
2023-02-22T02:02:25.168Z,101673.03
2023-02-22T02:04:27.994Z,101673.91
2023-02-22T02:06:33.510Z,101679.16
2023-02-22T02:08:49.663Z,101673.00
2023-02-22T02:10:53.413Z,101678.28
2023-02-22T02:12:57.411Z,101659.84
2023-02-22T02:15:23.530Z,101667.75
2023-02-22T02:17:25.020Z,101667.78
2023-02-22T02:19:38.511Z,101668.66
2023-02-22T02:21:54.793Z,101663.41
2023-02-22T02:24:21.248Z,101664.31
2023-02-22T02:26:46.979Z,101659.94
2023-02-22T02:29:25.896Z,101665.19
2023-02-22T02:31:34.891Z,101662.56
2023-02-22T02:33:57.029Z,101648.50
2023-02-22T02:36:36.243Z,101651.13
2023-02-22T02:38:49.289Z,101653.75
2023-02-22T02:41:12.154Z,101659.03
2023-02-22T02:43:22.846Z,101647.63
2023-02-22T02:45:34.270Z,101641.50
2023-02-22T02:47:42.342Z,101638.00
2023-02-22T02:49:58.138Z,101636.22
2023-02-22T02:52:02.745Z,101630.97
2023-02-22T02:54:05.786Z,101627.47
2023-02-22T02:56:07.654Z,101637.13
2023-02-22T02:58:09.511Z,101635.34
2023-02-22T03:00:24.163Z,101630.97
2023-02-22T03:02:28.490Z,101627.47
2023-02-22T03:04:45.248Z,101625.72
2023-02-22T03:07:05.860Z,101630.13
2023-02-22T03:09:42.991Z,101617.84
2023-02-22T03:12:01.365Z,101614.34
2023-02-22T03:14:16.416Z,101616.97
2023-02-22T03:16:21.082Z,101615.22
2023-02-22T03:18:31.626Z,101612.56
2023-02-22T03:20:45.385Z,101609.94
2023-02-22T03:22:59.004Z,101603.81
2023-02-22T03:25:43.435Z,101595.91
2023-02-22T03:27:53.306Z,101601.19
2023-02-22T03:30:00.413Z,101601.19
2023-02-22T03:32:07.344Z,101603.84
2023-02-22T03:34:16.005Z,101599.47
2023-02-22T03:36:25.122Z,101590.69
2023-02-22T03:38:29.753Z,101589.84
2023-02-22T03:40:35.030Z,101595.97
2023-02-22T03:42:38.206Z,101587.22
2023-02-22T03:44:43.569Z,101589.91
2023-02-22T03:46:47.738Z,101590.78
2023-02-22T03:49:00.185Z,101604.84
2023-02-22T03:51:04.607Z,101602.25
2023-02-22T03:53:07.459Z,101600.50
2023-02-22T03:55:11.270Z,101596.16
2023-02-22T03:57:20.874Z,101611.06
2023-02-22T03:59:27.296Z,101606.69
2023-02-22T04:01:28.798Z,101606.69
2023-02-22T04:03:30.301Z,101610.22
2023-02-22T04:05:31.785Z,101600.63
2023-02-22T04:07:33.323Z,101605.03
2023-02-22T04:09:34.769Z,101600.69
2023-02-22T04:11:36.603Z,101602.44
2023-02-22T04:13:38.075Z,101601.59
2023-02-22T04:15:39.562Z,101604.25
2023-02-22T04:17:41.241Z,101598.16
2023-02-22T04:19:45.092Z,101601.66
2023-02-22T04:21:46.689Z,101599.03
2023-02-22T04:23:48.184Z,101601.69
2023-02-22T04:25:49.660Z,101606.94
2023-02-22T04:27:51.712Z,101596.47
2023-02-22T04:29:53.247Z,101602.63
2023-02-22T04:31:54.794Z,101598.25
2023-02-22T04:33:56.291Z,101598.28
2023-02-22T04:35:57.855Z,101602.66
2023-02-22T04:37:59.330Z,101606.19
2023-02-22T04:40:01.672Z,101599.19
2023-02-22T04:42:03.252Z,101603.56
2023-02-22T04:44:04.879Z,101599.19
2023-02-22T04:46:06.440Z,101594.81
2023-02-22T04:48:07.976Z,101599.19
2023-02-22T04:50:11.417Z,101595.69
2023-02-22T04:52:12.873Z,101591.31
2023-02-22T04:54:14.450Z,101591.34
2023-02-22T04:56:19.898Z,101584.34
2023-02-22T04:58:21.617Z,101580.84
2023-02-22T05:00:24.011Z,101590.47
2023-02-22T05:02:25.539Z,101589.59
2023-02-22T05:04:27.132Z,101587.84
2023-02-22T05:06:28.640Z,101586.97
2023-02-22T05:08:30.156Z,101588.72
2023-02-22T05:10:31.637Z,101585.22
2023-02-22T05:12:33.111Z,101580.84
2023-02-22T05:14:34.657Z,101582.59
2023-02-22T05:16:36.575Z,101580.84
2023-02-22T05:18:38.071Z,101581.69
2023-02-22T05:20:39.778Z,101575.59
2023-02-22T05:22:41.227Z,101579.06
2023-02-22T05:24:43.920Z,101565.97
2023-02-22T05:26:46.540Z,101572.97
2023-02-22T05:28:48.015Z,101573.84
2023-02-22T05:30:49.615Z,101570.34
2023-02-22T05:32:51.743Z,101566.84
2023-02-22T05:34:53.240Z,101562.47
2023-02-22T05:36:54.738Z,101559.88
2023-02-22T05:38:56.510Z,101561.63
2023-02-22T05:40:57.979Z,101552.88
2023-02-22T05:43:02.138Z,101553.75
2023-02-22T05:45:03.861Z,101551.13
2023-02-22T05:47:05.374Z,101541.50
2023-02-22T05:49:07.099Z,101543.25
2023-02-22T05:51:09.720Z,101545.88
2023-02-22T05:53:11.315Z,101539.78
2023-02-22T05:55:14.763Z,101545.03
2023-02-22T05:57:16.687Z,101545.03
2023-02-22T05:59:18.225Z,101534.53
2023-02-22T06:01:20.409Z,101538.03
2023-02-22T06:03:22.476Z,101534.50
2023-02-22T06:05:24.244Z,101534.50
2023-02-22T06:07:25.882Z,101533.63
2023-02-22T06:09:27.390Z,101538.00
2023-02-22T06:11:28.856Z,101528.38
2023-02-22T06:13:30.355Z,101535.38
2023-02-22T06:15:31.844Z,101531.00
2023-02-22T06:17:33.349Z,101529.28
2023-02-22T06:19:34.928Z,101532.78
2023-02-22T06:21:36.369Z,101527.53
2023-02-22T06:23:37.943Z,101526.66
2023-02-22T06:25:39.421Z,101527.53
2023-02-22T06:27:40.943Z,101524.91
2023-02-22T06:29:46.940Z,101522.28
2023-02-22T06:31:48.449Z,101526.66
2023-02-22T06:33:49.987Z,101519.66
2023-02-22T06:35:51.467Z,101527.50
2023-02-22T06:37:53.015Z,101524.03
2023-02-22T06:39:54.533Z,101517.88
2023-02-22T06:41:57.782Z,101530.13
2023-02-22T06:43:59.286Z,101517.88
2023-02-22T06:46:00.798Z,101517.88
2023-02-22T06:48:02.326Z,101522.25
2023-02-22T06:50:03.908Z,101524.00
2023-02-22T06:52:06.953Z,101521.41
2023-02-22T06:54:08.720Z,101527.53
2023-02-22T06:56:10.172Z,101524.91
2023-02-22T06:58:11.618Z,101523.16
2023-02-22T07:00:16.220Z,101521.38
2023-02-22T07:02:17.694Z,101521.38
2023-02-22T07:04:19.175Z,101517.00
2023-02-22T07:06:20.847Z,101529.25
2023-02-22T07:08:22.303Z,101528.34
2023-02-22T07:10:27.803Z,101527.47
2023-02-22T07:12:29.263Z,101524.84
2023-02-22T07:14:30.765Z,101532.72
2023-02-22T07:16:32.292Z,101528.31
2023-02-22T07:18:33.796Z,101525.69
2023-02-22T07:20:35.330Z,101523.91
2023-02-22T07:22:37.676Z,101518.66
2023-02-22T07:24:40.740Z,101525.66
2023-02-22T07:26:42.710Z,101521.25
2023-02-22T07:28:44.168Z,101525.63
2023-02-22T07:30:45.690Z,101528.25
2023-02-22T07:32:47.626Z,101515.13
2023-02-22T07:34:49.145Z,101516.00
2023-02-22T07:36:50.646Z,101518.63
2023-02-22T07:38:52.091Z,101520.38
2023-02-22T07:40:53.680Z,101516.88
2023-02-22T07:42:57.934Z,101515.13
2023-02-22T07:44:59.447Z,101525.66
2023-02-22T07:47:02.526Z,101519.53
2023-02-22T07:49:04.041Z,101515.13
2023-02-22T07:51:06.099Z,101519.50
2023-02-22T07:53:21.306Z,101519.50
2023-02-22T07:55:25.994Z,101511.63
2023-02-22T07:57:27.580Z,101511.59
2023-02-22T07:59:29.055Z,101520.34
2023-02-22T08:01:31.887Z,101517.75
2023-02-22T08:03:36.517Z,101512.50
2023-02-22T08:05:40.234Z,101514.25
2023-02-22T08:07:43.243Z,101517.72
2023-02-22T08:09:44.715Z,101516.84
2023-02-22T08:11:46.182Z,101510.69
2023-02-22T08:13:47.660Z,101505.44
2023-02-22T08:15:52.051Z,101509.81
2023-02-22T08:17:53.680Z,101508.06
2023-02-22T08:19:55.321Z,101501.94
2023-02-22T08:21:56.763Z,101502.81
2023-02-22T08:23:58.281Z,101505.44
2023-02-22T08:26:10.916Z,101505.44
2023-02-22T08:28:15.173Z,101505.44
2023-02-22T08:30:23.168Z,101501.03
2023-02-22T08:32:24.923Z,101498.41
2023-02-22T08:34:27.264Z,101502.78
2023-02-22T08:36:29.541Z,101500.16
2023-02-22T08:38:32.662Z,101500.16
2023-02-22T08:40:37.031Z,101498.41
2023-02-22T08:42:38.909Z,101499.25
2023-02-22T08:44:41.002Z,101499.25
2023-02-22T08:46:42.503Z,101500.97
2023-02-22T08:49:03.066Z,101500.97
2023-02-22T08:51:04.650Z,101493.09
2023-02-22T08:53:06.148Z,101497.44
2023-02-22T08:55:07.990Z,101491.31
2023-02-22T08:57:09.466Z,101500.06
2023-02-22T08:59:11.046Z,101493.03
2023-02-22T09:01:14.043Z,101482.50
2023-02-22T09:03:17.078Z,101484.25
2023-02-22T09:05:19.790Z,101477.25
2023-02-22T09:07:21.316Z,101485.97
2023-02-22T09:09:22.790Z,101485.94
2023-02-22T09:11:24.288Z,101478.88
2023-02-22T09:13:25.833Z,101477.09
2023-02-22T09:15:27.989Z,101482.31
2023-02-22T09:17:29.496Z,101473.50
2023-02-22T09:19:31.066Z,101476.13
2023-02-22T09:21:32.555Z,101476.09
2023-02-22T09:23:34.740Z,101471.69
2023-02-22T09:25:36.251Z,101475.19
2023-02-22T09:27:38.796Z,101473.38
2023-02-22T09:29:40.458Z,101468.06
2023-02-22T09:31:41.996Z,101470.66
2023-02-22T09:33:44.310Z,101470.63
2023-02-22T09:35:49.808Z,101467.91
2023-02-22T09:37:51.350Z,101473.97
2023-02-22T09:39:52.905Z,101474.81
2023-02-22T09:42:13.515Z,101473.84
2023-02-22T09:44:39.125Z,101484.31
2023-02-22T09:46:45.639Z,101480.78
2023-02-22T09:49:07.843Z,101484.25
2023-02-22T09:51:17.088Z,101472.72
2023-02-22T09:53:29.551Z,101471.81
2023-02-22T09:55:51.163Z,101474.38
2023-02-22T09:57:55.490Z,101471.72
2023-02-22T10:00:13.615Z,101464.59
2023-02-22T10:02:31.499Z,101462.75
2023-02-22T10:05:08.351Z,101453.91
2023-02-22T10:07:25.994Z,101460.81
2023-02-22T10:09:30.359Z,101451.09
2023-02-22T10:11:37.628Z,101447.53
2023-02-22T10:13:54.292Z,101436.91
2023-02-22T10:16:20.363Z,101442.16
2023-02-22T10:18:40.553Z,101430.63
2023-02-22T10:21:02.774Z,101437.53
2023-02-22T10:23:16.420Z,101441.00
2023-02-22T10:25:20.082Z,101434.78
2023-02-22T10:27:29.187Z,101438.16
2023-02-22T10:29:41.632Z,101434.56
2023-02-22T10:31:49.038Z,101431.03
2023-02-22T10:34:03.253Z,101423.91
2023-02-22T10:36:05.065Z,101427.34
2023-02-22T10:38:20.145Z,101428.97
2023-02-22T10:40:32.172Z,101429.88
2023-02-22T10:42:33.689Z,101425.53
2023-02-22T10:44:37.527Z,101426.25
2023-02-22T10:46:42.007Z,101423.66
2023-02-22T10:48:47.549Z,101428.00
2023-02-22T10:50:50.502Z,101418.19
2023-02-22T10:52:51.981Z,101416.25
2023-02-22T10:55:13.728Z,101410.88
2023-02-22T10:57:23.037Z,101397.38
2023-02-22T10:59:39.358Z,101391.75
2023-02-22T11:01:41.061Z,101398.44
2023-02-22T11:03:42.620Z,101390.28
2023-02-22T11:05:44.700Z,101391.00
2023-02-22T11:07:46.207Z,101393.31
2023-02-22T11:09:52.583Z,101395.53
2023-02-22T11:12:16.534Z,101394.91
2023-02-22T11:14:29.466Z,101389.94
2023-02-22T11:16:36.348Z,101396.66
2023-02-22T11:18:38.095Z,101388.41
2023-02-22T11:20:39.822Z,101384.16
2023-02-22T11:22:42.576Z,101384.47
2023-02-22T11:24:51.094Z,101382.09
2023-02-22T11:26:59.602Z,101368.16
2023-02-22T11:29:11.099Z,101377.94
2023-02-22T11:31:24.561Z,101374.00
2023-02-22T11:33:29.257Z,101370.47
2023-02-22T11:35:39.272Z,101370.22
2023-02-22T11:37:40.850Z,101371.72
2023-02-22T11:39:43.805Z,101364.16
2023-02-22T11:41:45.350Z,101360.13
2023-02-22T11:43:49.245Z,101357.91
2023-02-22T11:46:02.014Z,101358.22
2023-02-22T11:48:07.376Z,101360.81
2023-02-22T11:50:22.893Z,101361.75
2023-02-22T11:52:28.205Z,101358.94
2023-02-22T11:55:01.885Z,101351.97
2023-02-22T11:57:26.651Z,101350.59
2023-02-22T11:59:41.604Z,101344.78
2023-02-22T12:01:54.471Z,101342.13
2023-02-22T12:04:28.302Z,101344.34
2023-02-22T12:06:58.314Z,101339.63
2023-02-22T12:09:24.464Z,101330.16
2023-02-22T12:11:50.833Z,101331.94
2023-02-22T12:14:01.612Z,101335.75
2023-02-22T12:16:12.989Z,101336.03
2023-02-22T12:18:33.137Z,101333.38
2023-02-22T12:20:51.863Z,101322.97
2023-02-22T12:23:12.790Z,101328.47
2023-02-22T12:25:24.952Z,101326.75
2023-02-22T12:27:44.128Z,101324.44
2023-02-22T12:29:51.303Z,101314.84
2023-02-22T12:32:14.351Z,101316.53
2023-02-22T12:34:27.232Z,101320.91
2023-02-22T12:36:40.234Z,101317.25
2023-02-22T12:38:47.407Z,101322.38
2023-02-22T12:41:08.757Z,101316.56
2023-02-22T12:43:26.272Z,101315.38
2023-02-22T12:45:34.138Z,101310.25
2023-02-22T12:47:45.819Z,101309.44
2023-02-22T12:50:03.321Z,101309.28
2023-02-22T12:52:39.057Z,101307.25
2023-02-22T12:54:50.422Z,101300.91
2023-02-22T12:57:13.648Z,101295.66
2023-02-22T12:59:19.247Z,101292.13
2023-02-22T13:01:25.874Z,101295.22
2023-02-22T13:03:40.617Z,101287.16
2023-02-22T13:05:43.263Z,101291.13
2023-02-22T13:08:02.499Z,101280.91
2023-02-22T13:10:32.019Z,101278.97
2023-02-22T13:12:46.251Z,101275.22
2023-02-22T13:14:54.660Z,101274.31
2023-02-22T13:17:14.893Z,101271.81
2023-02-22T13:19:30.740Z,101266.78
2023-02-22T13:21:44.862Z,101267.78
2023-02-22T13:23:49.090Z,101265.91
2023-02-22T13:26:01.116Z,101262.97
2023-02-22T13:28:13.461Z,101263.69
2023-02-22T13:30:34.963Z,101262.88
2023-02-22T13:32:54.639Z,101264.44
2023-02-22T13:35:20.977Z,101268.94
2023-02-22T13:37:37.840Z,101265.59
2023-02-22T13:39:54.485Z,101264.81
2023-02-22T13:42:09.982Z,101271.13
2023-02-22T13:44:36.773Z,101261.53
2023-02-22T13:47:11.485Z,101255.47
2023-02-22T13:49:31.565Z,101263.38
2023-02-22T13:51:38.027Z,101259.88
2023-02-22T13:53:47.519Z,101268.63
2023-02-22T13:55:53.786Z,101259.13
2023-02-22T13:58:07.680Z,101258.28
2023-02-22T14:00:40.954Z,101253.75
2023-02-22T14:03:06.782Z,101256.41
2023-02-22T14:05:46.688Z,101253.75
2023-02-22T14:07:48.885Z,101248.66
2023-02-22T14:09:59.153Z,101246.75
2023-02-22T14:12:00.641Z,101252.78
2023-02-22T14:14:02.061Z,101249.06
2023-02-22T14:16:06.287Z,101252.47
2023-02-22T14:18:16.928Z,101253.34
2023-02-22T14:20:29.975Z,101249.06
2023-02-22T14:22:31.744Z,101242.78
2023-02-22T14:24:44.510Z,101241.75
2023-02-22T14:27:04.704Z,101242.41
2023-02-22T14:29:09.147Z,101238.75
2023-02-22T14:31:25.783Z,101230.69
2023-02-22T14:33:59.377Z,101235.94
2023-02-22T14:36:01.014Z,101235.06
2023-02-22T14:38:04.054Z,101233.34
2023-02-22T14:40:26.842Z,101229.75
2023-02-22T14:42:35.880Z,101229.72
2023-02-22T14:44:43.653Z,101226.13
2023-02-22T14:46:50.022Z,101222.66
2023-02-22T14:48:59.765Z,101221.84
2023-02-22T14:51:19.094Z,101221.03
2023-02-22T14:53:44.260Z,101218.50
2023-02-22T14:56:03.889Z,101213.47
2023-02-22T14:58:10.810Z,101216.28
2023-02-22T15:00:22.784Z,101217.28
2023-02-22T15:02:26.038Z,101219.13
2023-02-22T15:04:31.015Z,101210.47
2023-02-22T15:06:35.229Z,101213.28
2023-02-22T15:08:41.614Z,101218.88
2023-02-22T15:10:48.300Z,101214.53
2023-02-22T15:13:08.633Z,101217.41
2023-02-22T15:15:22.738Z,101208.78
2023-02-22T15:17:24.975Z,101214.22
2023-02-22T15:19:29.027Z,101210.75
2023-02-22T15:21:32.125Z,101212.59
2023-02-22T15:23:49.010Z,101203.84
2023-02-22T15:25:50.908Z,101203.19
2023-02-22T15:27:52.510Z,101206.81
2023-02-22T15:30:04.522Z,101205.16
2023-02-22T15:32:36.687Z,101213.28
2023-02-22T15:34:38.228Z,101209.91
2023-02-22T15:36:39.807Z,101214.47
2023-02-22T15:38:43.179Z,101219.94
2023-02-22T15:40:45.594Z,101214.78
2023-02-22T15:42:58.364Z,101219.31
2023-02-22T15:44:59.914Z,101223.91
2023-02-22T15:47:01.434Z,101217.03
2023-02-22T15:49:20.553Z,101217.06
2023-02-22T15:51:22.068Z,101226.09
2023-02-22T15:53:28.819Z,101219.09
2023-02-22T15:55:36.975Z,101226.31
2023-02-22T15:57:38.513Z,101222.00
2023-02-22T15:59:43.740Z,101230.91
2023-02-22T16:01:48.056Z,101215.09
2023-02-22T16:03:55.516Z,101223.25
2023-02-22T16:05:58.500Z,101229.50
2023-02-22T16:08:00.024Z,101227.88
2023-02-22T16:10:08.982Z,101231.56
2023-02-22T16:12:22.714Z,101226.47
2023-02-22T16:14:30.309Z,101224.81
2023-02-22T16:16:34.901Z,101232.84
2023-02-22T16:18:41.305Z,101222.31
2023-02-22T16:20:42.833Z,101224.22
2023-02-22T16:22:51.569Z,101220.78
2023-02-22T16:24:54.574Z,101229.59
2023-02-22T16:27:10.502Z,101228.09
2023-02-22T16:29:26.377Z,101233.47
2023-02-22T16:31:34.354Z,101227.44
2023-02-22T16:33:35.878Z,101231.13
2023-02-22T16:35:37.453Z,101232.13
2023-02-22T16:37:38.913Z,101235.78
2023-02-22T16:39:41.766Z,101229.75
2023-02-22T16:41:43.297Z,101229.84
2023-02-22T16:43:47.005Z,101226.41
2023-02-22T16:45:48.530Z,101231.78
2023-02-22T16:47:53.778Z,101226.63
2023-02-22T16:49:57.042Z,101232.91
2023-02-22T16:52:01.503Z,101231.28
2023-02-22T16:54:03.170Z,101231.41
2023-02-22T16:56:08.598Z,101224.47
2023-02-22T16:58:12.499Z,101231.66
2023-02-22T17:00:21.828Z,101233.50
2023-02-22T17:02:23.314Z,101230.16
2023-02-22T17:04:26.475Z,101232.91
2023-02-22T17:06:29.199Z,101238.31
2023-02-22T17:08:31.303Z,101234.06
2023-02-22T17:10:34.069Z,101236.78
2023-02-22T17:12:35.648Z,101242.25
2023-02-22T17:14:37.233Z,101243.22
2023-02-22T17:16:38.722Z,101241.53
2023-02-22T17:18:40.308Z,101243.41
2023-02-22T17:20:45.655Z,101244.34
2023-02-22T17:22:47.911Z,101246.19
2023-02-22T17:24:49.603Z,101246.28
2023-02-22T17:26:53.124Z,101254.25
2023-02-22T17:28:54.630Z,101250.78
2023-02-22T17:31:01.955Z,101255.25
2023-02-22T17:33:06.126Z,101256.25
2023-02-22T17:35:07.717Z,101255.44
2023-02-22T17:37:09.182Z,101263.44
2023-02-22T17:39:10.994Z,101260.00
2023-02-22T17:41:12.470Z,101265.34
2023-02-22T17:43:14.686Z,101257.50
2023-02-22T17:45:16.198Z,101264.56
2023-02-22T17:47:17.718Z,101263.75
2023-02-22T17:49:19.345Z,101264.72
2023-02-22T17:51:25.849Z,101268.28
2023-02-22T17:53:27.308Z,101272.78
2023-02-22T17:55:29.835Z,101271.09
2023-02-22T17:57:31.305Z,101267.63
2023-02-22T17:59:32.929Z,101267.69
2023-02-22T18:01:35.236Z,101270.44
2023-02-22T18:03:39.470Z,101274.06
2023-02-22T18:05:43.568Z,101271.50
2023-02-22T18:07:46.144Z,101268.00
2023-02-22T18:09:47.694Z,101265.38
2023-02-22T18:11:49.228Z,101268.00
2023-02-22T18:13:50.681Z,101266.31
2023-02-22T18:15:52.705Z,101258.41
2023-02-22T18:17:54.622Z,101268.09
2023-02-22T18:19:56.436Z,101272.53
2023-02-22T18:22:00.205Z,101270.84
2023-02-22T18:24:01.999Z,101267.34
2023-02-22T18:26:11.111Z,101266.50
2023-02-22T18:28:13.033Z,101265.69
2023-02-22T18:30:14.604Z,101263.06
2023-02-22T18:32:16.125Z,101260.47
2023-02-22T18:34:17.621Z,101264.03
2023-02-22T18:36:23.681Z,101258.81
2023-02-22T18:38:25.606Z,101251.81
2023-02-22T18:40:27.133Z,101256.25
2023-02-22T18:42:28.859Z,101251.00
2023-02-22T18:44:31.734Z,101244.91
2023-02-22T18:46:33.289Z,101241.41
2023-02-22T18:48:35.544Z,101248.50
2023-02-22T18:50:37.839Z,101239.72
2023-02-22T18:52:45.963Z,101245.00
2023-02-22T18:54:49.417Z,101242.41
2023-02-22T18:56:50.944Z,101243.31
2023-02-22T18:58:56.946Z,101238.09
2023-02-22T19:01:02.872Z,101242.50
2023-02-22T19:03:05.772Z,101244.28
2023-02-22T19:05:09.781Z,101239.03
2023-02-22T19:07:17.744Z,101238.19
2023-02-22T19:09:19.322Z,101231.22
2023-02-22T19:11:23.810Z,101234.75
2023-02-22T19:13:25.287Z,101240.03
2023-02-22T19:15:26.752Z,101233.06
2023-02-22T19:17:29.713Z,101228.69
2023-02-22T19:19:31.503Z,101230.44
2023-02-22T19:21:33.197Z,101241.03
2023-02-22T19:23:36.281Z,101238.41
2023-02-22T19:25:41.127Z,101230.56
2023-02-22T19:27:44.404Z,101236.72
2023-02-22T19:29:47.122Z,101234.16
2023-02-22T19:31:54.095Z,101231.53
2023-02-22T19:33:56.004Z,101228.94
2023-02-22T19:35:59.829Z,101229.81
2023-02-22T19:38:01.613Z,101232.50
2023-02-22T19:40:09.069Z,101230.75
2023-02-22T19:42:10.635Z,101229.91
2023-02-22T19:44:12.693Z,101235.19
2023-02-22T19:46:17.762Z,101229.09
2023-02-22T19:48:20.688Z,101230.88
2023-02-22T19:50:22.641Z,101237.03
2023-02-22T19:52:24.114Z,101233.56
2023-02-22T19:54:25.784Z,101241.53
2023-02-22T19:56:28.235Z,101232.78
2023-02-22T19:58:32.410Z,101230.19
2023-02-22T20:00:37.070Z,101229.38
2023-02-22T20:02:39.958Z,101226.75
2023-02-22T20:04:41.566Z,101231.19
2023-02-22T20:06:44.018Z,101230.34
2023-02-22T20:08:45.544Z,101226.91
2023-02-22T20:10:47.006Z,101237.47
2023-02-22T20:12:48.511Z,101233.97
2023-02-22T20:14:50.019Z,101234.91
2023-02-22T20:16:53.166Z,101235.81
2023-02-22T20:18:55.093Z,101233.22
2023-02-22T20:20:56.586Z,101228.00
2023-02-22T20:22:58.058Z,101228.91
2023-02-22T20:24:59.586Z,101235.94
2023-02-22T20:27:01.057Z,101231.59
2023-02-22T20:29:04.204Z,101236.91
2023-02-22T20:31:11.147Z,101237.84
2023-02-22T20:33:13.953Z,101238.78
2023-02-22T20:35:16.502Z,101242.31
2023-02-22T20:37:18.261Z,101242.31
2023-02-22T20:39:20.028Z,101242.38
2023-02-22T20:41:26.154Z,101232.78
2023-02-22T20:43:27.614Z,101242.47
2023-02-22T20:45:29.100Z,101234.66
2023-02-22T20:47:30.755Z,101233.81
2023-02-22T20:49:32.529Z,101229.47
2023-02-22T20:51:35.365Z,101235.63
2023-02-22T20:53:41.349Z,101233.06
2023-02-22T20:55:52.984Z,101230.47
2023-02-22T20:57:54.492Z,101239.28
2023-02-22T20:59:56.055Z,101233.19
2023-02-22T21:01:57.671Z,101236.69
2023-02-22T21:04:03.895Z,101238.50
2023-02-22T21:06:06.707Z,101228.88
2023-02-22T21:08:08.197Z,101229.81
2023-02-22T21:10:09.666Z,101235.13
2023-02-22T21:12:13.509Z,101232.53
2023-02-22T21:14:18.724Z,101237.84
2023-02-22T21:16:31.445Z,101237.03
2023-02-22T21:18:33.135Z,101234.44
2023-02-22T21:20:35.376Z,101238.84
2023-02-22T21:22:38.587Z,101237.13
2023-02-22T21:24:40.260Z,101241.56
2023-02-22T21:26:41.734Z,101238.06
2023-02-22T21:28:51.205Z,101235.47
2023-02-22T21:30:53.156Z,101228.53
2023-02-22T21:32:55.491Z,101231.22
2023-02-22T21:34:57.407Z,101235.63
2023-02-22T21:36:58.884Z,101232.16
2023-02-22T21:39:08.218Z,101231.31
2023-02-22T21:41:15.324Z,101234.84
2023-02-22T21:43:16.779Z,101232.25
2023-02-22T21:45:19.761Z,101234.03
2023-02-22T21:47:21.365Z,101234.94
2023-02-22T21:49:23.270Z,101238.44
2023-02-22T21:51:32.793Z,101240.22
2023-02-22T21:53:34.390Z,101235.88
2023-02-22T21:55:38.101Z,101237.63
2023-02-22T21:57:40.689Z,101237.69
2023-02-22T21:59:42.149Z,101242.94
2023-02-22T22:01:55.447Z,101230.72
2023-02-22T22:04:01.390Z,101236.00
2023-02-22T22:06:09.825Z,101231.66
2023-02-22T22:08:19.345Z,101232.56
2023-02-22T22:10:26.790Z,101230.84
2023-02-22T22:12:37.422Z,101238.72
2023-02-22T22:14:40.525Z,101234.38
2023-02-22T22:16:41.991Z,101237.88
2023-02-22T22:18:44.770Z,101237.88
2023-02-22T22:20:46.236Z,101237.91
2023-02-22T22:22:47.760Z,101236.16
2023-02-22T22:24:50.012Z,101237.03
2023-02-22T22:26:54.766Z,101242.25
2023-02-22T22:28:59.267Z,101238.78
2023-02-22T22:31:00.834Z,101244.91
2023-02-22T22:33:06.402Z,101244.06
2023-02-22T22:35:14.738Z,101239.69
2023-02-22T22:37:16.653Z,101233.56
2023-02-22T22:39:20.895Z,101228.34
2023-02-22T22:41:23.390Z,101233.59
2023-02-22T22:43:25.019Z,101224.84
2023-02-22T22:45:26.608Z,101234.50
2023-02-22T22:47:28.645Z,101236.25
2023-02-22T22:49:32.536Z,101238.88
2023-02-22T22:51:34.304Z,101241.50
2023-02-22T22:53:41.566Z,101246.75
2023-02-22T22:55:43.256Z,101246.75
2023-02-22T22:57:44.724Z,101247.63
2023-02-22T22:59:46.169Z,101251.13
2023-02-22T23:01:47.661Z,101250.25
2023-02-22T23:03:55.825Z,101259.88
2023-02-22T23:06:02.140Z,101261.63
2023-02-22T23:08:04.967Z,101253.78
2023-02-22T23:10:07.073Z,101253.78
2023-02-22T23:12:08.860Z,101257.28
2023-02-22T23:14:21.229Z,101252.91
2023-02-22T23:16:24.619Z,101258.16
2023-02-22T23:18:26.178Z,101251.19
2023-02-22T23:20:27.683Z,101264.31
2023-02-22T23:22:29.255Z,101262.53
2023-02-22T23:24:33.434Z,101262.53
2023-02-22T23:26:35.172Z,101265.16
2023-02-22T23:28:38.480Z,101267.78
2023-02-22T23:30:41.046Z,101267.78
2023-02-22T23:32:42.604Z,101267.78
2023-02-22T23:34:44.182Z,101262.53
2023-02-22T23:36:46.664Z,101266.91
2023-02-22T23:38:48.625Z,101277.41
2023-02-22T23:40:53.926Z,101273.91
2023-02-22T23:42:55.630Z,101275.66
2023-02-22T23:44:57.234Z,101273.03
2023-02-22T23:46:58.759Z,101274.78
2023-02-22T23:49:03.154Z,101269.53
2023-02-22T23:51:09.341Z,101265.16
2023-02-22T23:53:15.160Z,101277.44
2023-02-22T23:55:20.724Z,101282.69
2023-02-22T23:57:24.082Z,101287.06
2023-02-22T23:59:27.131Z,101284.41
